sensor_id;sensor_type;location;lat;lon;timestamp;P1;durP1;ratioP1;P2;durP2;ratioP2
3453;SDS011;1741;51.294;8.608;2024-01-11T00:01:13;18.20;;;11.93;;
3453;SDS011;1741;51.294;8.608;2024-01-11T00:03:40;16.93;;;12.70;;
3453;SDS011;1741;51.294;8.608;2024-01-11T00:06:09;18.07;;;11.90;;
3453;SDS011;1741;51.294;8.608;2024-01-11T00:08:37;20.20;;;11.83;;
3453;SDS011;1741;51.294;8.608;2024-01-11T00:11:04;15.70;;;11.20;;
3453;SDS011;1741;51.294;8.608;2024-01-11T00:13:32;13.00;;;11.50;;
3453;SDS011;1741;51.294;8.608;2024-01-11T00:15:59;11.70;;;10.60;;
3453;SDS011;1741;51.294;8.608;2024-01-11T00:18:27;12.40;;;10.20;;
3453;SDS011;1741;51.294;8.608;2024-01-11T00:20:54;13.70;;;11.77;;
3453;SDS011;1741;51.294;8.608;2024-01-11T00:23:21;16.73;;;11.13;;
3453;SDS011;1741;51.294;8.608;2024-01-11T00:25:49;11.50;;;10.30;;
3453;SDS011;1741;51.294;8.608;2024-01-11T00:28:16;15.27;;;10.13;;
3453;SDS011;1741;51.294;8.608;2024-01-11T00:30:44;10.87;;;9.73;;
3453;SDS011;1741;51.294;8.608;2024-01-11T00:33:11;11.00;;;9.47;;
3453;SDS011;1741;51.294;8.608;2024-01-11T00:35:38;10.83;;;9.03;;
3453;SDS011;1741;51.294;8.608;2024-01-11T00:38:06;9.60;;;8.60;;
3453;SDS011;1741;51.294;8.608;2024-01-11T00:40:34;11.33;;;9.10;;
3453;SDS011;1741;51.294;8.608;2024-01-11T00:43:02;11.10;;;8.63;;
3453;SDS011;1741;51.294;8.608;2024-01-11T00:45:30;9.50;;;8.70;;
3453;SDS011;1741;51.294;8.608;2024-01-11T00:47:56;14.80;;;9.37;;
3453;SDS011;1741;51.294;8.608;2024-01-11T00:50:24;15.93;;;8.83;;
3453;SDS011;1741;51.294;8.608;2024-01-11T00:52:52;12.23;;;9.90;;
3453;SDS011;1741;51.294;8.608;2024-01-11T00:55:19;10.23;;;8.47;;
3453;SDS011;1741;51.294;8.608;2024-01-11T00:57:46;17.63;;;9.00;;
3453;SDS011;1741;51.294;8.608;2024-01-11T01:00:13;17.97;;;9.07;;
3453;SDS011;1741;51.294;8.608;2024-01-11T01:02:42;9.20;;;7.40;;
3453;SDS011;1741;51.294;8.608;2024-01-11T01:05:09;10.87;;;8.50;;
3453;SDS011;1741;51.294;8.608;2024-01-11T01:07:36;9.10;;;7.87;;
3453;SDS011;1741;51.294;8.608;2024-01-11T01:10:05;11.47;;;7.43;;
3453;SDS011;1741;51.294;8.608;2024-01-11T01:12:33;10.07;;;7.67;;
3453;SDS011;1741;51.294;8.608;2024-01-11T01:15:02;9.23;;;7.63;;
3453;SDS011;1741;51.294;8.608;2024-01-11T01:17:30;11.87;;;7.77;;
3453;SDS011;1741;51.294;8.608;2024-01-11T01:20:00;13.10;;;7.90;;
3453;SDS011;1741;51.294;8.608;2024-01-11T01:22:27;10.37;;;7.80;;
3453;SDS011;1741;51.294;8.608;2024-01-11T01:24:54;8.80;;;7.60;;
3453;SDS011;1741;51.294;8.608;2024-01-11T01:27:21;15.93;;;8.43;;
3453;SDS011;1741;51.294;8.608;2024-01-11T01:29:48;13.27;;;8.70;;
3453;SDS011;1741;51.294;8.608;2024-01-11T01:32:15;12.00;;;8.63;;
3453;SDS011;1741;51.294;8.608;2024-01-11T01:34:43;8.90;;;8.03;;
3453;SDS011;1741;51.294;8.608;2024-01-11T01:37:13;9.40;;;8.50;;
3453;SDS011;1741;51.294;8.608;2024-01-11T01:39:50;9.97;;;7.80;;
3453;SDS011;1741;51.294;8.608;2024-01-11T01:42:17;13.87;;;8.70;;
3453;SDS011;1741;51.294;8.608;2024-01-11T01:44:43;10.20;;;8.67;;
3453;SDS011;1741;51.294;8.608;2024-01-11T01:47:11;12.33;;;7.90;;
3453;SDS011;1741;51.294;8.608;2024-01-11T01:49:39;9.43;;;8.47;;
3453;SDS011;1741;51.294;8.608;2024-01-11T01:52:08;11.10;;;9.00;;
3453;SDS011;1741;51.294;8.608;2024-01-11T01:54:35;9.10;;;8.30;;
3453;SDS011;1741;51.294;8.608;2024-01-11T01:57:03;10.10;;;8.53;;
3453;SDS011;1741;51.294;8.608;2024-01-11T01:59:31;12.20;;;9.60;;
3453;SDS011;1741;51.294;8.608;2024-01-11T02:02:00;8.60;;;7.80;;
3453;SDS011;1741;51.294;8.608;2024-01-11T02:04:28;11.17;;;8.10;;
3453;SDS011;1741;51.294;8.608;2024-01-11T02:06:56;9.97;;;8.50;;
3453;SDS011;1741;51.294;8.608;2024-01-11T02:09:24;10.90;;;8.40;;
3453;SDS011;1741;51.294;8.608;2024-01-11T02:11:54;9.20;;;8.40;;
3453;SDS011;1741;51.294;8.608;2024-01-11T02:14:21;12.17;;;8.43;;
3453;SDS011;1741;51.294;8.608;2024-01-11T02:16:48;9.60;;;8.60;;
3453;SDS011;1741;51.294;8.608;2024-01-11T02:19:16;14.13;;;8.30;;
3453;SDS011;1741;51.294;8.608;2024-01-11T02:21:46;12.77;;;8.73;;
3453;SDS011;1741;51.294;8.608;2024-01-11T02:24:16;11.60;;;8.60;;
3453;SDS011;1741;51.294;8.608;2024-01-11T02:27:03;9.33;;;8.00;;
3453;SDS011;1741;51.294;8.608;2024-01-11T02:29:31;8.67;;;7.90;;
3453;SDS011;1741;51.294;8.608;2024-01-11T02:31:59;10.67;;;7.40;;
3453;SDS011;1741;51.294;8.608;2024-01-11T02:34:29;10.90;;;8.70;;
3453;SDS011;1741;51.294;8.608;2024-01-11T02:36:56;13.53;;;8.30;;
3453;SDS011;1741;51.294;8.608;2024-01-11T02:39:24;10.53;;;7.93;;
3453;SDS011;1741;51.294;8.608;2024-01-11T02:41:53;8.97;;;7.07;;
3453;SDS011;1741;51.294;8.608;2024-01-11T02:44:24;12.80;;;8.57;;
3453;SDS011;1741;51.294;8.608;2024-01-11T02:46:51;8.33;;;7.63;;
3453;SDS011;1741;51.294;8.608;2024-01-11T02:49:18;14.20;;;8.80;;
3453;SDS011;1741;51.294;8.608;2024-01-11T02:51:46;13.13;;;9.70;;
3453;SDS011;1741;51.294;8.608;2024-01-11T02:54:13;9.17;;;8.27;;
3453;SDS011;1741;51.294;8.608;2024-01-11T02:56:42;19.87;;;8.03;;
3453;SDS011;1741;51.294;8.608;2024-01-11T02:59:11;14.70;;;8.77;;
3453;SDS011;1741;51.294;8.608;2024-01-11T03:01:38;9.60;;;7.17;;
3453;SDS011;1741;51.294;8.608;2024-01-11T03:04:05;7.90;;;7.17;;
3453;SDS011;1741;51.294;8.608;2024-01-11T03:06:33;11.40;;;8.10;;
3453;SDS011;1741;51.294;8.608;2024-01-11T03:09:02;7.63;;;7.00;;
3453;SDS011;1741;51.294;8.608;2024-01-11T03:11:29;9.70;;;8.23;;
3453;SDS011;1741;51.294;8.608;2024-01-11T03:13:59;11.23;;;7.97;;
3453;SDS011;1741;51.294;8.608;2024-01-11T03:16:26;8.80;;;8.00;;
3453;SDS011;1741;51.294;8.608;2024-01-11T03:18:53;8.43;;;7.73;;
3453;SDS011;1741;51.294;8.608;2024-01-11T03:21:20;10.33;;;7.27;;
3453;SDS011;1741;51.294;8.608;2024-01-11T03:23:47;9.97;;;8.97;;
3453;SDS011;1741;51.294;8.608;2024-01-11T03:26:15;9.50;;;8.70;;
3453;SDS011;1741;51.294;8.608;2024-01-11T03:28:44;9.53;;;8.03;;
3453;SDS011;1741;51.294;8.608;2024-01-11T03:31:11;8.60;;;7.80;;
3453;SDS011;1741;51.294;8.608;2024-01-11T03:33:38;10.23;;;8.10;;
3453;SDS011;1741;51.294;8.608;2024-01-11T03:36:06;8.60;;;7.87;;
3453;SDS011;1741;51.294;8.608;2024-01-11T03:38:34;9.43;;;8.40;;
3453;SDS011;1741;51.294;8.608;2024-01-11T03:41:07;8.83;;;7.87;;
3453;SDS011;1741;51.294;8.608;2024-01-11T03:43:39;9.13;;;8.20;;
3453;SDS011;1741;51.294;8.608;2024-01-11T03:46:06;8.60;;;7.90;;
3453;SDS011;1741;51.294;8.608;2024-01-11T03:48:32;13.90;;;8.67;;
3453;SDS011;1741;51.294;8.608;2024-01-11T03:51:04;8.33;;;7.73;;
3453;SDS011;1741;51.294;8.608;2024-01-11T03:53:35;10.97;;;8.07;;
3453;SDS011;1741;51.294;8.608;2024-01-11T03:56:03;9.73;;;8.40;;
3453;SDS011;1741;51.294;8.608;2024-01-11T03:58:31;8.73;;;8.03;;
3453;SDS011;1741;51.294;8.608;2024-01-11T04:00:59;9.73;;;8.83;;
3453;SDS011;1741;51.294;8.608;2024-01-11T04:03:27;12.53;;;8.70;;
3453;SDS011;1741;51.294;8.608;2024-01-11T04:05:54;7.50;;;7.10;;
3453;SDS011;1741;51.294;8.608;2024-01-11T04:08:22;7.53;;;7.00;;
3453;SDS011;1741;51.294;8.608;2024-01-11T04:10:49;7.93;;;7.30;;
3453;SDS011;1741;51.294;8.608;2024-01-11T04:13:16;7.93;;;7.20;;
3453;SDS011;1741;51.294;8.608;2024-01-11T04:15:43;9.83;;;7.80;;
3453;SDS011;1741;51.294;8.608;2024-01-11T04:18:10;7.33;;;6.83;;
3453;SDS011;1741;51.294;8.608;2024-01-11T04:20:38;11.23;;;6.67;;
3453;SDS011;1741;51.294;8.608;2024-01-11T04:23:05;8.20;;;7.50;;
3453;SDS011;1741;51.294;8.608;2024-01-11T04:25:32;8.20;;;7.47;;
3453;SDS011;1741;51.294;8.608;2024-01-11T04:27:59;8.27;;;6.50;;
3453;SDS011;1741;51.294;8.608;2024-01-11T04:30:31;8.10;;;6.20;;
3453;SDS011;1741;51.294;8.608;2024-01-11T04:33:00;7.77;;;7.13;;
3453;SDS011;1741;51.294;8.608;2024-01-11T04:35:28;7.23;;;6.70;;
3453;SDS011;1741;51.294;8.608;2024-01-11T04:37:55;7.47;;;6.77;;
3453;SDS011;1741;51.294;8.608;2024-01-11T04:40:24;6.67;;;6.17;;
3453;SDS011;1741;51.294;8.608;2024-01-11T04:42:51;11.30;;;6.77;;
3453;SDS011;1741;51.294;8.608;2024-01-11T04:45:18;7.10;;;6.60;;
3453;SDS011;1741;51.294;8.608;2024-01-11T04:47:49;6.30;;;5.90;;
3453;SDS011;1741;51.294;8.608;2024-01-11T04:50:18;8.03;;;6.57;;
3453;SDS011;1741;51.294;8.608;2024-01-11T04:52:48;6.23;;;5.83;;
3453;SDS011;1741;51.294;8.608;2024-01-11T04:55:15;7.10;;;6.50;;
3453;SDS011;1741;51.294;8.608;2024-01-11T04:57:42;6.73;;;6.23;;
3453;SDS011;1741;51.294;8.608;2024-01-11T05:00:09;5.97;;;5.60;;
3453;SDS011;1741;51.294;8.608;2024-01-11T05:02:37;6.47;;;5.93;;
3453;SDS011;1741;51.294;8.608;2024-01-11T05:05:04;6.23;;;5.83;;
3453;SDS011;1741;51.294;8.608;2024-01-11T05:07:32;6.53;;;6.20;;
3453;SDS011;1741;51.294;8.608;2024-01-11T05:10:01;5.80;;;5.60;;
3453;SDS011;1741;51.294;8.608;2024-01-11T05:12:28;6.83;;;6.30;;
3453;SDS011;1741;51.294;8.608;2024-01-11T05:14:55;11.53;;;6.37;;
3453;SDS011;1741;51.294;8.608;2024-01-11T05:17:21;6.80;;;6.40;;
3453;SDS011;1741;51.294;8.608;2024-01-11T05:19:49;6.20;;;5.80;;
3453;SDS011;1741;51.294;8.608;2024-01-11T05:22:16;5.90;;;5.50;;
3453;SDS011;1741;51.294;8.608;2024-01-11T05:24:44;5.93;;;5.30;;
3453;SDS011;1741;51.294;8.608;2024-01-11T05:27:12;6.87;;;6.37;;
3453;SDS011;1741;51.294;8.608;2024-01-11T05:29:39;7.47;;;5.97;;
3453;SDS011;1741;51.294;8.608;2024-01-11T05:32:06;6.10;;;5.50;;
3453;SDS011;1741;51.294;8.608;2024-01-11T05:34:33;22.87;;;5.87;;
3453;SDS011;1741;51.294;8.608;2024-01-11T05:37:00;5.97;;;5.53;;
3453;SDS011;1741;51.294;8.608;2024-01-11T05:39:27;5.43;;;4.90;;
3453;SDS011;1741;51.294;8.608;2024-01-11T05:41:54;9.07;;;5.83;;
3453;SDS011;1741;51.294;8.608;2024-01-11T05:44:22;6.40;;;5.80;;
3453;SDS011;1741;51.294;8.608;2024-01-11T05:46:49;5.77;;;5.23;;
3453;SDS011;1741;51.294;8.608;2024-01-11T05:49:18;6.90;;;5.13;;
3453;SDS011;1741;51.294;8.608;2024-01-11T05:51:45;5.70;;;5.17;;
3453;SDS011;1741;51.294;8.608;2024-01-11T05:54:12;5.30;;;4.90;;
3453;SDS011;1741;51.294;8.608;2024-01-11T05:56:40;6.33;;;5.70;;
3453;SDS011;1741;51.294;8.608;2024-01-11T05:59:07;7.27;;;5.10;;
3453;SDS011;1741;51.294;8.608;2024-01-11T06:01:40;10.30;;;4.97;;
3453;SDS011;1741;51.294;8.608;2024-01-11T06:04:09;8.60;;;5.17;;
3453;SDS011;1741;51.294;8.608;2024-01-11T06:06:36;4.73;;;4.43;;
3453;SDS011;1741;51.294;8.608;2024-01-11T06:09:03;4.83;;;4.50;;
3453;SDS011;1741;51.294;8.608;2024-01-11T06:11:31;5.03;;;4.63;;
3453;SDS011;1741;51.294;8.608;2024-01-11T06:13:59;5.83;;;5.13;;
3453;SDS011;1741;51.294;8.608;2024-01-11T06:16:27;5.73;;;5.17;;
3453;SDS011;1741;51.294;8.608;2024-01-11T06:18:55;5.17;;;4.77;;
3453;SDS011;1741;51.294;8.608;2024-01-11T06:21:22;4.30;;;4.10;;
3453;SDS011;1741;51.294;8.608;2024-01-11T06:23:49;4.90;;;4.50;;
3453;SDS011;1741;51.294;8.608;2024-01-11T06:26:16;6.37;;;5.77;;
3453;SDS011;1741;51.294;8.608;2024-01-11T06:28:44;12.73;;;5.57;;
3453;SDS011;1741;51.294;8.608;2024-01-11T06:31:13;5.40;;;4.90;;
3453;SDS011;1741;51.294;8.608;2024-01-11T06:33:42;5.57;;;5.17;;
3453;SDS011;1741;51.294;8.608;2024-01-11T06:36:16;5.60;;;5.13;;
3453;SDS011;1741;51.294;8.608;2024-01-11T06:38:43;5.17;;;4.80;;
3453;SDS011;1741;51.294;8.608;2024-01-11T06:41:11;5.50;;;5.10;;
3453;SDS011;1741;51.294;8.608;2024-01-11T06:43:38;5.60;;;4.83;;
3453;SDS011;1741;51.294;8.608;2024-01-11T06:46:05;7.43;;;5.53;;
3453;SDS011;1741;51.294;8.608;2024-01-11T06:48:33;6.47;;;5.40;;
3453;SDS011;1741;51.294;8.608;2024-01-11T06:51:00;5.70;;;5.20;;
3453;SDS011;1741;51.294;8.608;2024-01-11T06:53:30;6.53;;;5.87;;
3453;SDS011;1741;51.294;8.608;2024-01-11T06:55:57;14.50;;;6.00;;
3453;SDS011;1741;51.294;8.608;2024-01-11T06:58:24;5.67;;;5.27;;
3453;SDS011;1741;51.294;8.608;2024-01-11T07:00:52;5.37;;;4.90;;
3453;SDS011;1741;51.294;8.608;2024-01-11T07:03:20;4.80;;;4.50;;
3453;SDS011;1741;51.294;8.608;2024-01-11T07:05:47;6.03;;;5.57;;
3453;SDS011;1741;51.294;8.608;2024-01-11T07:08:14;7.67;;;5.47;;
3453;SDS011;1741;51.294;8.608;2024-01-11T07:10:41;5.43;;;4.93;;
3453;SDS011;1741;51.294;8.608;2024-01-11T07:13:09;5.13;;;4.73;;
3453;SDS011;1741;51.294;8.608;2024-01-11T07:15:40;9.13;;;5.43;;
3453;SDS011;1741;51.294;8.608;2024-01-11T07:18:07;4.77;;;4.53;;
3453;SDS011;1741;51.294;8.608;2024-01-11T07:20:34;4.80;;;4.40;;
3453;SDS011;1741;51.294;8.608;2024-01-11T07:23:01;4.97;;;4.67;;
3453;SDS011;1741;51.294;8.608;2024-01-11T07:25:29;5.30;;;4.90;;
3453;SDS011;1741;51.294;8.608;2024-01-11T07:27:56;5.30;;;5.00;;
3453;SDS011;1741;51.294;8.608;2024-01-11T07:30:24;4.27;;;4.07;;
3453;SDS011;1741;51.294;8.608;2024-01-11T07:32:51;5.30;;;4.93;;
3453;SDS011;1741;51.294;8.608;2024-01-11T07:35:19;4.63;;;4.37;;
3453;SDS011;1741;51.294;8.608;2024-01-11T07:37:46;5.23;;;4.93;;
3453;SDS011;1741;51.294;8.608;2024-01-11T07:40:14;10.17;;;4.87;;
3453;SDS011;1741;51.294;8.608;2024-01-11T07:42:43;4.80;;;4.60;;
3453;SDS011;1741;51.294;8.608;2024-01-11T07:45:10;5.80;;;5.40;;
3453;SDS011;1741;51.294;8.608;2024-01-11T07:47:37;4.30;;;4.13;;
3453;SDS011;1741;51.294;8.608;2024-01-11T07:50:06;5.13;;;4.83;;
3453;SDS011;1741;51.294;8.608;2024-01-11T07:52:36;4.50;;;4.27;;
3453;SDS011;1741;51.294;8.608;2024-01-11T07:55:04;9.77;;;5.80;;
3453;SDS011;1741;51.294;8.608;2024-01-11T07:57:35;4.73;;;4.53;;
3453;SDS011;1741;51.294;8.608;2024-01-11T08:00:04;8.30;;;4.53;;
3453;SDS011;1741;51.294;8.608;2024-01-11T08:02:41;5.60;;;5.23;;
3453;SDS011;1741;51.294;8.608;2024-01-11T08:05:08;5.30;;;5.00;;
3453;SDS011;1741;51.294;8.608;2024-01-11T08:07:36;8.13;;;5.17;;
3453;SDS011;1741;51.294;8.608;2024-01-11T08:10:03;5.90;;;5.40;;
3453;SDS011;1741;51.294;8.608;2024-01-11T08:12:31;5.93;;;5.43;;
3453;SDS011;1741;51.294;8.608;2024-01-11T08:14:58;4.97;;;4.77;;
3453;SDS011;1741;51.294;8.608;2024-01-11T08:17:27;5.20;;;4.90;;
3453;SDS011;1741;51.294;8.608;2024-01-11T08:19:54;5.23;;;5.03;;
3453;SDS011;1741;51.294;8.608;2024-01-11T08:22:23;5.63;;;5.23;;
3453;SDS011;1741;51.294;8.608;2024-01-11T08:24:53;5.37;;;5.03;;
3453;SDS011;1741;51.294;8.608;2024-01-11T08:27:20;6.33;;;6.00;;
3453;SDS011;1741;51.294;8.608;2024-01-11T08:29:48;5.53;;;5.13;;
3453;SDS011;1741;51.294;8.608;2024-01-11T08:32:16;5.90;;;5.60;;
3453;SDS011;1741;51.294;8.608;2024-01-11T08:34:57;7.10;;;6.47;;
3453;SDS011;1741;51.294;8.608;2024-01-11T08:37:24;9.53;;;8.83;;
3453;SDS011;1741;51.294;8.608;2024-01-11T08:39:51;7.90;;;7.40;;
3453;SDS011;1741;51.294;8.608;2024-01-11T08:42:18;7.40;;;6.83;;
3453;SDS011;1741;51.294;8.608;2024-01-11T08:44:46;5.90;;;5.50;;
3453;SDS011;1741;51.294;8.608;2024-01-11T08:47:15;6.83;;;6.43;;
3453;SDS011;1741;51.294;8.608;2024-01-11T08:49:42;7.27;;;6.77;;
3453;SDS011;1741;51.294;8.608;2024-01-11T08:52:10;7.17;;;6.67;;
3453;SDS011;1741;51.294;8.608;2024-01-11T08:54:37;6.77;;;6.37;;
3453;SDS011;1741;51.294;8.608;2024-01-11T08:57:06;7.53;;;7.03;;
3453;SDS011;1741;51.294;8.608;2024-01-11T08:59:34;7.20;;;6.60;;
3453;SDS011;1741;51.294;8.608;2024-01-11T09:02:01;7.43;;;6.90;;
3453;SDS011;1741;51.294;8.608;2024-01-11T09:04:41;6.57;;;6.10;;
3453;SDS011;1741;51.294;8.608;2024-01-11T09:07:09;7.17;;;6.77;;
3453;SDS011;1741;51.294;8.608;2024-01-11T09:09:36;7.10;;;6.70;;
3453;SDS011;1741;51.294;8.608;2024-01-11T09:12:16;7.40;;;6.90;;
3453;SDS011;1741;51.294;8.608;2024-01-11T09:14:46;7.27;;;6.57;;
3453;SDS011;1741;51.294;8.608;2024-01-11T09:17:14;6.87;;;6.13;;
3453;SDS011;1741;51.294;8.608;2024-01-11T09:19:40;6.23;;;5.83;;
3453;SDS011;1741;51.294;8.608;2024-01-11T09:22:08;6.43;;;6.03;;
3453;SDS011;1741;51.294;8.608;2024-01-11T09:24:39;7.13;;;6.63;;
3453;SDS011;1741;51.294;8.608;2024-01-11T09:27:06;8.40;;;6.93;;
3453;SDS011;1741;51.294;8.608;2024-01-11T09:29:34;7.33;;;6.90;;
3453;SDS011;1741;51.294;8.608;2024-01-11T09:32:01;9.30;;;6.87;;
3453;SDS011;1741;51.294;8.608;2024-01-11T09:34:31;7.03;;;6.37;;
3453;SDS011;1741;51.294;8.608;2024-01-11T09:37:05;7.00;;;6.50;;
3453;SDS011;1741;51.294;8.608;2024-01-11T09:39:32;6.27;;;5.77;;
3453;SDS011;1741;51.294;8.608;2024-01-11T09:42:03;7.57;;;6.30;;
3453;SDS011;1741;51.294;8.608;2024-01-11T09:44:39;6.53;;;6.03;;
3453;SDS011;1741;51.294;8.608;2024-01-11T09:47:08;6.43;;;6.07;;
3453;SDS011;1741;51.294;8.608;2024-01-11T09:49:42;6.70;;;6.20;;
3453;SDS011;1741;51.294;8.608;2024-01-11T09:52:11;6.20;;;5.80;;
3453;SDS011;1741;51.294;8.608;2024-01-11T09:54:42;8.50;;;7.73;;
3453;SDS011;1741;51.294;8.608;2024-01-11T09:57:09;7.23;;;6.73;;
3453;SDS011;1741;51.294;8.608;2024-01-11T09:59:37;8.17;;;6.30;;
3453;SDS011;1741;51.294;8.608;2024-01-11T10:02:07;6.50;;;5.83;;
3453;SDS011;1741;51.294;8.608;2024-01-11T10:04:41;7.70;;;7.10;;
3453;SDS011;1741;51.294;8.608;2024-01-11T10:07:09;7.30;;;6.77;;
3453;SDS011;1741;51.294;8.608;2024-01-11T10:09:36;7.67;;;7.07;;
3453;SDS011;1741;51.294;8.608;2024-01-11T10:12:04;7.80;;;7.40;;
3453;SDS011;1741;51.294;8.608;2024-01-11T10:14:32;8.17;;;7.40;;
3453;SDS011;1741;51.294;8.608;2024-01-11T10:16:59;13.63;;;8.20;;
3453;SDS011;1741;51.294;8.608;2024-01-11T10:19:29;8.70;;;8.30;;
3453;SDS011;1741;51.294;8.608;2024-01-11T10:21:57;9.03;;;8.63;;
3453;SDS011;1741;51.294;8.608;2024-01-11T10:24:27;13.53;;;9.10;;
3453;SDS011;1741;51.294;8.608;2024-01-11T10:26:55;10.53;;;9.40;;
3453;SDS011;1741;51.294;8.608;2024-01-11T10:29:31;12.63;;;9.77;;
3453;SDS011;1741;51.294;8.608;2024-01-11T10:31:59;10.73;;;10.13;;
3453;SDS011;1741;51.294;8.608;2024-01-11T10:34:26;10.60;;;9.97;;
3453;SDS011;1741;51.294;8.608;2024-01-11T10:36:54;11.37;;;10.83;;
3453;SDS011;1741;51.294;8.608;2024-01-11T10:39:24;11.37;;;10.77;;
3453;SDS011;1741;51.294;8.608;2024-01-11T10:42:04;12.90;;;11.90;;
3453;SDS011;1741;51.294;8.608;2024-01-11T10:44:34;11.70;;;11.10;;
3453;SDS011;1741;51.294;8.608;2024-01-11T10:47:03;11.80;;;11.00;;
3453;SDS011;1741;51.294;8.608;2024-01-11T10:49:34;12.70;;;11.93;;
3453;SDS011;1741;51.294;8.608;2024-01-11T10:52:07;11.50;;;11.00;;
3453;SDS011;1741;51.294;8.608;2024-01-11T10:54:35;12.80;;;12.00;;
3453;SDS011;1741;51.294;8.608;2024-01-11T10:57:04;12.97;;;12.17;;
3453;SDS011;1741;51.294;8.608;2024-01-11T10:59:34;12.37;;;11.77;;
3453;SDS011;1741;51.294;8.608;2024-01-11T11:02:08;14.07;;;13.17;;
3453;SDS011;1741;51.294;8.608;2024-01-11T11:04:40;14.50;;;13.60;;
3453;SDS011;1741;51.294;8.608;2024-01-11T11:07:09;14.43;;;13.63;;
3453;SDS011;1741;51.294;8.608;2024-01-11T11:09:38;15.73;;;14.57;;
3453;SDS011;1741;51.294;8.608;2024-01-11T11:12:10;14.43;;;13.73;;
3453;SDS011;1741;51.294;8.608;2024-01-11T11:14:38;15.30;;;14.40;;
3453;SDS011;1741;51.294;8.608;2024-01-11T11:17:05;14.77;;;13.97;;
3453;SDS011;1741;51.294;8.608;2024-01-11T11:19:32;14.80;;;14.00;;
3453;SDS011;1741;51.294;8.608;2024-01-11T11:21:59;14.43;;;13.73;;
3453;SDS011;1741;51.294;8.608;2024-01-11T11:24:33;14.50;;;13.70;;
3453;SDS011;1741;51.294;8.608;2024-01-11T11:27:01;14.40;;;13.70;;
3453;SDS011;1741;51.294;8.608;2024-01-11T11:29:30;15.00;;;14.13;;
3453;SDS011;1741;51.294;8.608;2024-01-11T11:31:57;14.47;;;13.77;;
3453;SDS011;1741;51.294;8.608;2024-01-11T11:34:41;14.30;;;13.50;;
3453;SDS011;1741;51.294;8.608;2024-01-11T11:37:14;14.43;;;13.63;;
3453;SDS011;1741;51.294;8.608;2024-01-11T11:39:51;14.83;;;14.00;;
3453;SDS011;1741;51.294;8.608;2024-01-11T11:42:19;15.73;;;14.47;;
3453;SDS011;1741;51.294;8.608;2024-01-11T11:44:50;14.67;;;14.07;;
3453;SDS011;1741;51.294;8.608;2024-01-11T11:47:18;15.60;;;14.80;;
3453;SDS011;1741;51.294;8.608;2024-01-11T11:50:03;16.60;;;15.70;;
3453;SDS011;1741;51.294;8.608;2024-01-11T11:52:38;15.70;;;14.90;;
3453;SDS011;1741;51.294;8.608;2024-01-11T11:55:07;15.10;;;14.20;;
3453;SDS011;1741;51.294;8.608;2024-01-11T11:57:35;15.20;;;14.47;;
3453;SDS011;1741;51.294;8.608;2024-01-11T12:00:04;15.10;;;14.40;;
3453;SDS011;1741;51.294;8.608;2024-01-11T12:02:38;15.90;;;15.00;;
3453;SDS011;1741;51.294;8.608;2024-01-11T12:05:05;15.00;;;14.27;;
3453;SDS011;1741;51.294;8.608;2024-01-11T12:07:33;15.17;;;14.47;;
3453;SDS011;1741;51.294;8.608;2024-01-11T12:10:05;15.40;;;14.70;;
3453;SDS011;1741;51.294;8.608;2024-01-11T12:12:35;14.73;;;14.10;;
3453;SDS011;1741;51.294;8.608;2024-01-11T12:15:04;15.57;;;14.87;;
3453;SDS011;1741;51.294;8.608;2024-01-11T12:17:32;15.83;;;15.10;;
3453;SDS011;1741;51.294;8.608;2024-01-11T12:19:59;17.00;;;16.10;;
3453;SDS011;1741;51.294;8.608;2024-01-11T12:22:26;16.53;;;15.73;;
3453;SDS011;1741;51.294;8.608;2024-01-11T12:24:56;16.53;;;15.53;;
3453;SDS011;1741;51.294;8.608;2024-01-11T12:27:23;16.93;;;15.80;;
3453;SDS011;1741;51.294;8.608;2024-01-11T12:29:50;16.87;;;15.60;;
3453;SDS011;1741;51.294;8.608;2024-01-11T12:32:26;16.60;;;15.60;;
3453;SDS011;1741;51.294;8.608;2024-01-11T12:34:53;18.27;;;16.87;;
3453;SDS011;1741;51.294;8.608;2024-01-11T12:37:21;17.93;;;16.67;;
3453;SDS011;1741;51.294;8.608;2024-01-11T12:39:48;17.93;;;16.77;;
3453;SDS011;1741;51.294;8.608;2024-01-11T12:42:15;19.30;;;17.80;;
3453;SDS011;1741;51.294;8.608;2024-01-11T12:44:42;18.23;;;17.03;;
3453;SDS011;1741;51.294;8.608;2024-01-11T12:47:10;19.10;;;17.90;;
3453;SDS011;1741;51.294;8.608;2024-01-11T12:49:39;19.00;;;17.60;;
3453;SDS011;1741;51.294;8.608;2024-01-11T12:52:20;18.27;;;17.07;;
3453;SDS011;1741;51.294;8.608;2024-01-11T12:54:47;18.40;;;17.20;;
3453;SDS011;1741;51.294;8.608;2024-01-11T12:57:18;18.20;;;16.90;;
3453;SDS011;1741;51.294;8.608;2024-01-11T12:59:46;19.00;;;17.70;;
3453;SDS011;1741;51.294;8.608;2024-01-11T13:02:15;18.83;;;17.63;;
3453;SDS011;1741;51.294;8.608;2024-01-11T13:04:44;20.30;;;18.80;;
3453;SDS011;1741;51.294;8.608;2024-01-11T13:07:13;21.10;;;19.30;;
3453;SDS011;1741;51.294;8.608;2024-01-11T13:09:43;20.50;;;19.00;;
3453;SDS011;1741;51.294;8.608;2024-01-11T13:12:10;20.90;;;19.30;;
3453;SDS011;1741;51.294;8.608;2024-01-11T13:14:37;21.90;;;19.87;;
3453;SDS011;1741;51.294;8.608;2024-01-11T13:17:07;20.90;;;19.40;;
3453;SDS011;1741;51.294;8.608;2024-01-11T13:19:34;20.87;;;19.27;;
3453;SDS011;1741;51.294;8.608;2024-01-11T13:22:01;21.60;;;19.97;;
3453;SDS011;1741;51.294;8.608;2024-01-11T13:24:29;20.57;;;19.07;;
3453;SDS011;1741;51.294;8.608;2024-01-11T13:26:56;23.10;;;20.53;;
3453;SDS011;1741;51.294;8.608;2024-01-11T13:29:23;21.67;;;19.70;;
3453;SDS011;1741;51.294;8.608;2024-01-11T13:31:51;22.00;;;20.00;;
3453;SDS011;1741;51.294;8.608;2024-01-11T13:34:18;21.60;;;20.00;;
3453;SDS011;1741;51.294;8.608;2024-01-11T13:36:45;21.63;;;19.87;;
3453;SDS011;1741;51.294;8.608;2024-01-11T13:39:12;20.80;;;18.87;;
3453;SDS011;1741;51.294;8.608;2024-01-11T13:41:39;21.57;;;19.70;;
3453;SDS011;1741;51.294;8.608;2024-01-11T13:44:07;22.33;;;20.27;;
3453;SDS011;1741;51.294;8.608;2024-01-11T13:46:42;21.90;;;20.20;;
3453;SDS011;1741;51.294;8.608;2024-01-11T13:49:10;22.43;;;20.47;;
3453;SDS011;1741;51.294;8.608;2024-01-11T13:51:38;21.87;;;20.17;;
3453;SDS011;1741;51.294;8.608;2024-01-11T13:54:19;21.40;;;19.80;;
3453;SDS011;1741;51.294;8.608;2024-01-11T13:56:46;21.10;;;19.60;;
3453;SDS011;1741;51.294;8.608;2024-01-11T13:59:13;21.83;;;19.63;;
3453;SDS011;1741;51.294;8.608;2024-01-11T14:01:41;20.27;;;18.77;;
3453;SDS011;1741;51.294;8.608;2024-01-11T14:04:08;20.57;;;18.97;;
3453;SDS011;1741;51.294;8.608;2024-01-11T14:06:35;20.10;;;18.60;;
3453;SDS011;1741;51.294;8.608;2024-01-11T14:09:03;21.07;;;19.47;;
3453;SDS011;1741;51.294;8.608;2024-01-11T14:11:34;22.03;;;20.10;;
3453;SDS011;1741;51.294;8.608;2024-01-11T14:14:02;22.90;;;20.90;;
3453;SDS011;1741;51.294;8.608;2024-01-11T14:16:29;22.30;;;20.60;;
3453;SDS011;1741;51.294;8.608;2024-01-11T14:18:57;21.83;;;20.33;;
3453;SDS011;1741;51.294;8.608;2024-01-11T14:21:26;23.83;;;21.40;;
3453;SDS011;1741;51.294;8.608;2024-01-11T14:23:53;22.00;;;20.50;;
3453;SDS011;1741;51.294;8.608;2024-01-11T14:26:20;23.13;;;21.30;;
3453;SDS011;1741;51.294;8.608;2024-01-11T14:28:49;23.43;;;21.40;;
3453;SDS011;1741;51.294;8.608;2024-01-11T14:31:18;23.07;;;21.47;;
3453;SDS011;1741;51.294;8.608;2024-01-11T14:33:45;22.40;;;20.77;;
3453;SDS011;1741;51.294;8.608;2024-01-11T14:36:13;22.90;;;21.00;;
3453;SDS011;1741;51.294;8.608;2024-01-11T14:38:43;23.00;;;21.30;;
3453;SDS011;1741;51.294;8.608;2024-01-11T14:41:13;23.20;;;21.10;;
3453;SDS011;1741;51.294;8.608;2024-01-11T14:43:41;22.10;;;20.60;;
3453;SDS011;1741;51.294;8.608;2024-01-11T14:46:09;22.20;;;20.60;;
3453;SDS011;1741;51.294;8.608;2024-01-11T14:48:41;24.13;;;21.87;;
3453;SDS011;1741;51.294;8.608;2024-01-11T14:51:08;22.73;;;21.03;;
3453;SDS011;1741;51.294;8.608;2024-01-11T14:53:35;24.63;;;22.53;;
3453;SDS011;1741;51.294;8.608;2024-01-11T14:56:02;23.50;;;21.50;;
3453;SDS011;1741;51.294;8.608;2024-01-11T14:58:30;22.70;;;20.80;;
3453;SDS011;1741;51.294;8.608;2024-01-11T15:00:58;24.20;;;21.97;;
3453;SDS011;1741;51.294;8.608;2024-01-11T15:03:25;23.53;;;21.40;;
3453;SDS011;1741;51.294;8.608;2024-01-11T15:05:52;21.83;;;19.97;;
3453;SDS011;1741;51.294;8.608;2024-01-11T15:08:20;22.90;;;21.00;;
3453;SDS011;1741;51.294;8.608;2024-01-11T15:10:47;22.00;;;19.97;;